sensor_id;sensor_type;location;lat;lon;timestamp;P1;durP1;ratioP1;P2;durP2;ratioP2
2686;SDS011;1353;51.386;7.028;2022-11-20T00:01:26;29.08;;;18.02;;
2686;SDS011;1353;51.386;7.028;2022-11-20T00:03:55;29.65;;;17.98;;
2686;SDS011;1353;51.386;7.028;2022-11-20T00:06:23;31.20;;;18.98;;
2686;SDS011;1353;51.386;7.028;2022-11-20T00:08:51;25.88;;;15.68;;
2686;SDS011;1353;51.386;7.028;2022-11-20T00:11:20;33.83;;;18.58;;
2686;SDS011;1353;51.386;7.028;2022-11-20T00:13:49;32.80;;;20.80;;
2686;SDS011;1353;51.386;7.028;2022-11-20T00:16:19;29.25;;;19.20;;
2686;SDS011;1353;51.386;7.028;2022-11-20T00:18:47;33.17;;;20.92;;
2686;SDS011;1353;51.386;7.028;2022-11-20T00:21:17;34.83;;;23.25;;
2686;SDS011;1353;51.386;7.028;2022-11-20T00:23:45;28.40;;;19.95;;
2686;SDS011;1353;51.386;7.028;2022-11-20T00:26:13;28.10;;;18.05;;
2686;SDS011;1353;51.386;7.028;2022-11-20T00:28:41;28.92;;;17.40;;
2686;SDS011;1353;51.386;7.028;2022-11-20T00:31:10;28.88;;;17.42;;
2686;SDS011;1353;51.386;7.028;2022-11-20T00:33:38;25.15;;;17.15;;
2686;SDS011;1353;51.386;7.028;2022-11-20T00:36:06;24.33;;;16.15;;
2686;SDS011;1353;51.386;7.028;2022-11-20T00:38:37;27.88;;;18.08;;
2686;SDS011;1353;51.386;7.028;2022-11-20T00:41:04;25.20;;;17.70;;
2686;SDS011;1353;51.386;7.028;2022-11-20T00:43:32;30.15;;;18.90;;
2686;SDS011;1353;51.386;7.028;2022-11-20T00:46:00;32.50;;;18.90;;
2686;SDS011;1353;51.386;7.028;2022-11-20T00:48:29;25.58;;;16.23;;
2686;SDS011;1353;51.386;7.028;2022-11-20T00:50:56;25.83;;;16.58;;
2686;SDS011;1353;51.386;7.028;2022-11-20T00:53:23;28.25;;;18.17;;
2686;SDS011;1353;51.386;7.028;2022-11-20T00:55:55;27.42;;;18.05;;
2686;SDS011;1353;51.386;7.028;2022-11-20T00:58:23;25.75;;;17.77;;
2686;SDS011;1353;51.386;7.028;2022-11-20T01:00:51;28.92;;;18.92;;
2686;SDS011;1353;51.386;7.028;2022-11-20T01:03:18;27.38;;;17.83;;
2686;SDS011;1353;51.386;7.028;2022-11-20T01:05:45;31.17;;;19.08;;
2686;SDS011;1353;51.386;7.028;2022-11-20T01:08:11;28.55;;;18.80;;
2686;SDS011;1353;51.386;7.028;2022-11-20T01:10:38;27.23;;;18.27;;
2686;SDS011;1353;51.386;7.028;2022-11-20T01:13:06;32.58;;;19.88;;
2686;SDS011;1353;51.386;7.028;2022-11-20T01:15:51;29.90;;;19.13;;
2686;SDS011;1353;51.386;7.028;2022-11-20T01:18:17;28.27;;;17.77;;
2686;SDS011;1353;51.386;7.028;2022-11-20T01:20:44;33.42;;;20.83;;
2686;SDS011;1353;51.386;7.028;2022-11-20T01:23:11;29.67;;;21.05;;
2686;SDS011;1353;51.386;7.028;2022-11-20T01:25:37;30.52;;;19.75;;
2686;SDS011;1353;51.386;7.028;2022-11-20T01:28:04;28.88;;;18.88;;
2686;SDS011;1353;51.386;7.028;2022-11-20T01:30:32;29.35;;;18.38;;
2686;SDS011;1353;51.386;7.028;2022-11-20T01:32:59;33.75;;;19.27;;
2686;SDS011;1353;51.386;7.028;2022-11-20T01:35:26;30.83;;;18.55;;
2686;SDS011;1353;51.386;7.028;2022-11-20T01:37:52;27.65;;;19.08;;
2686;SDS011;1353;51.386;7.028;2022-11-20T01:40:19;29.77;;;18.30;;
2686;SDS011;1353;51.386;7.028;2022-11-20T01:42:47;26.85;;;16.98;;
2686;SDS011;1353;51.386;7.028;2022-11-20T01:45:50;28.95;;;17.70;;
2686;SDS011;1353;51.386;7.028;2022-11-20T01:48:38;26.48;;;17.95;;
2686;SDS011;1353;51.386;7.028;2022-11-20T01:51:12;28.40;;;17.98;;
2686;SDS011;1353;51.386;7.028;2022-11-20T01:53:42;27.15;;;16.27;;
2686;SDS011;1353;51.386;7.028;2022-11-20T01:56:09;27.55;;;16.98;;
2686;SDS011;1353;51.386;7.028;2022-11-20T01:58:40;23.83;;;15.93;;
2686;SDS011;1353;51.386;7.028;2022-11-20T02:01:12;30.60;;;17.45;;
2686;SDS011;1353;51.386;7.028;2022-11-20T02:03:40;27.80;;;17.85;;
2686;SDS011;1353;51.386;7.028;2022-11-20T02:06:10;27.45;;;17.67;;
2686;SDS011;1353;51.386;7.028;2022-11-20T02:08:40;27.65;;;18.63;;
2686;SDS011;1353;51.386;7.028;2022-11-20T02:11:08;30.42;;;17.70;;
2686;SDS011;1353;51.386;7.028;2022-11-20T02:13:35;28.90;;;17.20;;
2686;SDS011;1353;51.386;7.028;2022-11-20T02:16:10;25.63;;;17.05;;
2686;SDS011;1353;51.386;7.028;2022-11-20T02:18:41;25.65;;;17.40;;
2686;SDS011;1353;51.386;7.028;2022-11-20T02:21:13;26.80;;;17.42;;
2686;SDS011;1353;51.386;7.028;2022-11-20T02:24:01;27.77;;;16.98;;
2686;SDS011;1353;51.386;7.028;2022-11-20T02:26:30;29.95;;;18.83;;
2686;SDS011;1353;51.386;7.028;2022-11-20T02:29:00;27.65;;;18.33;;
2686;SDS011;1353;51.386;7.028;2022-11-20T02:31:28;29.27;;;16.92;;
2686;SDS011;1353;51.386;7.028;2022-11-20T02:33:59;23.88;;;15.93;;
2686;SDS011;1353;51.386;7.028;2022-11-20T02:36:26;28.15;;;18.98;;
2686;SDS011;1353;51.386;7.028;2022-11-20T02:38:55;30.23;;;17.35;;
2686;SDS011;1353;51.386;7.028;2022-11-20T02:41:29;26.55;;;18.13;;
2686;SDS011;1353;51.386;7.028;2022-11-20T02:43:57;31.38;;;18.23;;
2686;SDS011;1353;51.386;7.028;2022-11-20T02:46:23;29.52;;;17.60;;
2686;SDS011;1353;51.386;7.028;2022-11-20T02:48:50;27.63;;;18.50;;
2686;SDS011;1353;51.386;7.028;2022-11-20T02:51:17;23.52;;;16.85;;
2686;SDS011;1353;51.386;7.028;2022-11-20T02:53:43;26.52;;;17.60;;
2686;SDS011;1353;51.386;7.028;2022-11-20T02:56:10;27.42;;;18.20;;
2686;SDS011;1353;51.386;7.028;2022-11-20T02:58:38;28.92;;;19.67;;
2686;SDS011;1353;51.386;7.028;2022-11-20T03:01:05;25.25;;;16.88;;
2686;SDS011;1353;51.386;7.028;2022-11-20T03:03:32;26.90;;;18.20;;
2686;SDS011;1353;51.386;7.028;2022-11-20T03:05:58;26.48;;;18.45;;
2686;SDS011;1353;51.386;7.028;2022-11-20T03:08:26;26.90;;;17.38;;
2686;SDS011;1353;51.386;7.028;2022-11-20T03:10:53;26.00;;;17.65;;
2686;SDS011;1353;51.386;7.028;2022-11-20T03:13:20;26.90;;;17.35;;
2686;SDS011;1353;51.386;7.028;2022-11-20T03:15:48;21.92;;;15.88;;
2686;SDS011;1353;51.386;7.028;2022-11-20T03:18:14;27.88;;;18.35;;
2686;SDS011;1353;51.386;7.028;2022-11-20T03:20:41;23.95;;;15.27;;
2686;SDS011;1353;51.386;7.028;2022-11-20T03:23:08;23.58;;;15.20;;
2686;SDS011;1353;51.386;7.028;2022-11-20T03:25:34;24.50;;;15.05;;
2686;SDS011;1353;51.386;7.028;2022-11-20T03:28:01;30.58;;;18.42;;
2686;SDS011;1353;51.386;7.028;2022-11-20T03:30:28;25.42;;;17.30;;
2686;SDS011;1353;51.386;7.028;2022-11-20T03:32:57;25.45;;;17.15;;
2686;SDS011;1353;51.386;7.028;2022-11-20T03:35:24;28.15;;;16.73;;
2686;SDS011;1353;51.386;7.028;2022-11-20T03:37:51;27.33;;;18.65;;
2686;SDS011;1353;51.386;7.028;2022-11-20T03:40:18;30.45;;;19.13;;
2686;SDS011;1353;51.386;7.028;2022-11-20T03:42:45;26.38;;;17.58;;
2686;SDS011;1353;51.386;7.028;2022-11-20T03:45:11;23.35;;;17.88;;
2686;SDS011;1353;51.386;7.028;2022-11-20T03:47:38;25.90;;;17.02;;
2686;SDS011;1353;51.386;7.028;2022-11-20T03:50:07;25.83;;;17.02;;
2686;SDS011;1353;51.386;7.028;2022-11-20T03:52:35;27.58;;;19.10;;
2686;SDS011;1353;51.386;7.028;2022-11-20T03:55:01;24.88;;;16.60;;
2686;SDS011;1353;51.386;7.028;2022-11-20T03:57:28;27.30;;;16.85;;
2686;SDS011;1353;51.386;7.028;2022-11-20T03:59:55;24.42;;;16.45;;
2686;SDS011;1353;51.386;7.028;2022-11-20T04:02:22;24.10;;;16.67;;
2686;SDS011;1353;51.386;7.028;2022-11-20T04:04:49;24.98;;;16.00;;
2686;SDS011;1353;51.386;7.028;2022-11-20T04:07:17;25.88;;;17.05;;
2686;SDS011;1353;51.386;7.028;2022-11-20T04:09:44;21.48;;;15.48;;
2686;SDS011;1353;51.386;7.028;2022-11-20T04:12:10;26.95;;;17.15;;
2686;SDS011;1353;51.386;7.028;2022-11-20T04:14:37;25.00;;;16.38;;
2686;SDS011;1353;51.386;7.028;2022-11-20T04:17:04;29.55;;;17.02;;
2686;SDS011;1353;51.386;7.028;2022-11-20T04:19:30;24.85;;;17.83;;
2686;SDS011;1353;51.386;7.028;2022-11-20T04:21:57;27.25;;;18.88;;
2686;SDS011;1353;51.386;7.028;2022-11-20T04:24:25;23.25;;;16.35;;
2686;SDS011;1353;51.386;7.028;2022-11-20T04:26:52;26.77;;;18.40;;
2686;SDS011;1353;51.386;7.028;2022-11-20T04:29:19;23.20;;;16.90;;
2686;SDS011;1353;51.386;7.028;2022-11-20T04:31:46;25.77;;;17.48;;
2686;SDS011;1353;51.386;7.028;2022-11-20T04:34:12;24.95;;;17.10;;
2686;SDS011;1353;51.386;7.028;2022-11-20T04:36:39;31.90;;;17.55;;
2686;SDS011;1353;51.386;7.028;2022-11-20T04:39:11;22.63;;;15.38;;
2686;SDS011;1353;51.386;7.028;2022-11-20T04:41:40;24.77;;;16.73;;
2686;SDS011;1353;51.386;7.028;2022-11-20T04:44:07;23.95;;;16.80;;
2686;SDS011;1353;51.386;7.028;2022-11-20T04:46:34;26.45;;;17.35;;
2686;SDS011;1353;51.386;7.028;2022-11-20T04:49:03;28.15;;;18.27;;
2686;SDS011;1353;51.386;7.028;2022-11-20T04:51:30;27.17;;;17.75;;
2686;SDS011;1353;51.386;7.028;2022-11-20T04:53:57;26.08;;;18.25;;
2686;SDS011;1353;51.386;7.028;2022-11-20T04:56:23;26.40;;;17.20;;
2686;SDS011;1353;51.386;7.028;2022-11-20T04:58:52;23.98;;;16.75;;
2686;SDS011;1353;51.386;7.028;2022-11-20T05:01:19;25.15;;;17.00;;
2686;SDS011;1353;51.386;7.028;2022-11-20T05:03:48;27.42;;;17.45;;
2686;SDS011;1353;51.386;7.028;2022-11-20T05:06:15;22.67;;;17.50;;
2686;SDS011;1353;51.386;7.028;2022-11-20T05:08:43;22.42;;;15.70;;
2686;SDS011;1353;51.386;7.028;2022-11-20T05:11:10;23.35;;;16.85;;
2686;SDS011;1353;51.386;7.028;2022-11-20T05:13:38;29.98;;;18.17;;
2686;SDS011;1353;51.386;7.028;2022-11-20T05:16:08;25.92;;;16.52;;
2686;SDS011;1353;51.386;7.028;2022-11-20T05:18:36;27.70;;;17.95;;
2686;SDS011;1353;51.386;7.028;2022-11-20T05:21:03;26.15;;;18.42;;
2686;SDS011;1353;51.386;7.028;2022-11-20T05:23:31;26.08;;;17.77;;
2686;SDS011;1353;51.386;7.028;2022-11-20T05:25:59;28.55;;;19.05;;
2686;SDS011;1353;51.386;7.028;2022-11-20T05:28:26;29.48;;;19.17;;
2686;SDS011;1353;51.386;7.028;2022-11-20T05:30:55;25.77;;;18.45;;
2686;SDS011;1353;51.386;7.028;2022-11-20T05:33:23;25.85;;;17.30;;
2686;SDS011;1353;51.386;7.028;2022-11-20T05:35:49;28.20;;;18.58;;
2686;SDS011;1353;51.386;7.028;2022-11-20T05:38:16;32.13;;;20.52;;
2686;SDS011;1353;51.386;7.028;2022-11-20T05:40:43;27.30;;;19.02;;
2686;SDS011;1353;51.386;7.028;2022-11-20T05:43:09;29.17;;;18.33;;
2686;SDS011;1353;51.386;7.028;2022-11-20T05:45:36;30.85;;;20.10;;
2686;SDS011;1353;51.386;7.028;2022-11-20T05:48:03;25.83;;;18.50;;
2686;SDS011;1353;51.386;7.028;2022-11-20T05:50:32;29.58;;;19.13;;
2686;SDS011;1353;51.386;7.028;2022-11-20T05:52:58;23.42;;;15.43;;
2686;SDS011;1353;51.386;7.028;2022-11-20T05:55:25;25.90;;;16.45;;
2686;SDS011;1353;51.386;7.028;2022-11-20T05:57:52;30.33;;;17.17;;
2686;SDS011;1353;51.386;7.028;2022-11-20T06:00:20;25.52;;;17.70;;
2686;SDS011;1353;51.386;7.028;2022-11-20T06:02:47;32.78;;;21.77;;
2686;SDS011;1353;51.386;7.028;2022-11-20T06:05:13;28.30;;;19.02;;
2686;SDS011;1353;51.386;7.028;2022-11-20T06:07:42;26.90;;;18.02;;
2686;SDS011;1353;51.386;7.028;2022-11-20T06:10:08;23.90;;;17.75;;
2686;SDS011;1353;51.386;7.028;2022-11-20T06:12:36;23.63;;;15.43;;
2686;SDS011;1353;51.386;7.028;2022-11-20T06:15:03;26.73;;;18.30;;
2686;SDS011;1353;51.386;7.028;2022-11-20T06:17:30;21.73;;;15.10;;
2686;SDS011;1353;51.386;7.028;2022-11-20T06:19:57;22.63;;;16.50;;
2686;SDS011;1353;51.386;7.028;2022-11-20T06:22:24;28.23;;;17.83;;
2686;SDS011;1353;51.386;7.028;2022-11-20T06:24:52;25.98;;;16.83;;
2686;SDS011;1353;51.386;7.028;2022-11-20T06:27:19;24.83;;;17.00;;
2686;SDS011;1353;51.386;7.028;2022-11-20T06:29:45;23.33;;;15.93;;
2686;SDS011;1353;51.386;7.028;2022-11-20T06:32:12;22.55;;;15.63;;
2686;SDS011;1353;51.386;7.028;2022-11-20T06:34:39;23.77;;;16.10;;
2686;SDS011;1353;51.386;7.028;2022-11-20T06:37:06;24.13;;;15.93;;
2686;SDS011;1353;51.386;7.028;2022-11-20T06:39:32;22.05;;;15.48;;
2686;SDS011;1353;51.386;7.028;2022-11-20T06:42:00;27.08;;;15.75;;
2686;SDS011;1353;51.386;7.028;2022-11-20T06:44:27;24.77;;;15.60;;
2686;SDS011;1353;51.386;7.028;2022-11-20T06:46:54;28.75;;;16.45;;
2686;SDS011;1353;51.386;7.028;2022-11-20T06:49:21;24.00;;;16.15;;
2686;SDS011;1353;51.386;7.028;2022-11-20T06:51:48;25.27;;;17.45;;
2686;SDS011;1353;51.386;7.028;2022-11-20T06:54:14;24.42;;;16.23;;
2686;SDS011;1353;51.386;7.028;2022-11-20T06:56:41;23.02;;;14.65;;
2686;SDS011;1353;51.386;7.028;2022-11-20T06:59:09;23.45;;;15.80;;
2686;SDS011;1353;51.386;7.028;2022-11-20T07:01:36;25.30;;;16.35;;
2686;SDS011;1353;51.386;7.028;2022-11-20T07:04:03;27.70;;;19.13;;
2686;SDS011;1353;51.386;7.028;2022-11-20T07:06:30;26.20;;;17.23;;
2686;SDS011;1353;51.386;7.028;2022-11-20T07:08:56;24.33;;;16.13;;
2686;SDS011;1353;51.386;7.028;2022-11-20T07:11:23;24.60;;;15.45;;
2686;SDS011;1353;51.386;7.028;2022-11-20T07:13:50;24.23;;;15.40;;
2686;SDS011;1353;51.386;7.028;2022-11-20T07:16:18;20.27;;;15.68;;
2686;SDS011;1353;51.386;7.028;2022-11-20T07:18:45;25.70;;;16.00;;
2686;SDS011;1353;51.386;7.028;2022-11-20T07:21:12;21.55;;;15.82;;
2686;SDS011;1353;51.386;7.028;2022-11-20T07:23:40;28.35;;;17.52;;
2686;SDS011;1353;51.386;7.028;2022-11-20T07:26:07;24.38;;;16.08;;
2686;SDS011;1353;51.386;7.028;2022-11-20T07:28:35;24.20;;;16.48;;
2686;SDS011;1353;51.386;7.028;2022-11-20T07:31:02;25.83;;;16.73;;
2686;SDS011;1353;51.386;7.028;2022-11-20T07:33:31;29.60;;;18.80;;
2686;SDS011;1353;51.386;7.028;2022-11-20T07:35:58;30.65;;;17.70;;
2686;SDS011;1353;51.386;7.028;2022-11-20T07:38:25;30.98;;;20.23;;
2686;SDS011;1353;51.386;7.028;2022-11-20T07:40:53;28.05;;;19.10;;
2686;SDS011;1353;51.386;7.028;2022-11-20T07:43:20;29.23;;;17.10;;
2686;SDS011;1353;51.386;7.028;2022-11-20T07:45:47;33.25;;;19.13;;
2686;SDS011;1353;51.386;7.028;2022-11-20T07:48:14;30.73;;;19.50;;
2686;SDS011;1353;51.386;7.028;2022-11-20T07:50:42;32.58;;;20.70;;
2686;SDS011;1353;51.386;7.028;2022-11-20T07:53:09;33.55;;;20.63;;
2686;SDS011;1353;51.386;7.028;2022-11-20T07:55:37;37.20;;;22.90;;
2686;SDS011;1353;51.386;7.028;2022-11-20T07:58:04;38.05;;;22.65;;
2686;SDS011;1353;51.386;7.028;2022-11-20T08:00:30;42.08;;;24.80;;
2686;SDS011;1353;51.386;7.028;2022-11-20T08:02:57;41.95;;;27.13;;
2686;SDS011;1353;51.386;7.028;2022-11-20T08:05:24;39.87;;;25.17;;
2686;SDS011;1353;51.386;7.028;2022-11-20T08:07:52;38.40;;;26.33;;
2686;SDS011;1353;51.386;7.028;2022-11-20T08:10:19;28.30;;;20.87;;
2686;SDS011;1353;51.386;7.028;2022-11-20T08:12:46;30.70;;;22.77;;
2686;SDS011;1353;51.386;7.028;2022-11-20T08:15:31;24.30;;;17.83;;
2686;SDS011;1353;51.386;7.028;2022-11-20T08:18:01;22.00;;;18.07;;
2686;SDS011;1353;51.386;7.028;2022-11-20T08:20:29;21.97;;;16.70;;
2686;SDS011;1353;51.386;7.028;2022-11-20T08:23:00;20.30;;;15.52;;
2686;SDS011;1353;51.386;7.028;2022-11-20T08:25:30;20.10;;;14.80;;
2686;SDS011;1353;51.386;7.028;2022-11-20T08:27:57;23.17;;;15.55;;
2686;SDS011;1353;51.386;7.028;2022-11-20T08:30:26;23.15;;;15.57;;
2686;SDS011;1353;51.386;7.028;2022-11-20T08:32:53;21.45;;;15.88;;
2686;SDS011;1353;51.386;7.028;2022-11-20T08:35:20;23.63;;;15.77;;
2686;SDS011;1353;51.386;7.028;2022-11-20T08:37:47;24.17;;;14.70;;
2686;SDS011;1353;51.386;7.028;2022-11-20T08:40:15;22.15;;;14.88;;
2686;SDS011;1353;51.386;7.028;2022-11-20T08:42:46;21.33;;;13.85;;
2686;SDS011;1353;51.386;7.028;2022-11-20T08:45:13;23.85;;;15.70;;
2686;SDS011;1353;51.386;7.028;2022-11-20T08:47:40;23.83;;;15.52;;
2686;SDS011;1353;51.386;7.028;2022-11-20T08:50:07;27.40;;;17.98;;
2686;SDS011;1353;51.386;7.028;2022-11-20T08:52:34;23.70;;;16.90;;
2686;SDS011;1353;51.386;7.028;2022-11-20T08:55:01;24.67;;;15.88;;
2686;SDS011;1353;51.386;7.028;2022-11-20T08:57:32;24.30;;;14.77;;
2686;SDS011;1353;51.386;7.028;2022-11-20T08:59:58;25.83;;;15.95;;
2686;SDS011;1353;51.386;7.028;2022-11-20T09:02:25;24.35;;;15.95;;
2686;SDS011;1353;51.386;7.028;2022-11-20T09:04:52;23.10;;;16.65;;
2686;SDS011;1353;51.386;7.028;2022-11-20T09:07:19;26.30;;;17.00;;
2686;SDS011;1353;51.386;7.028;2022-11-20T09:09:46;26.25;;;16.75;;
2686;SDS011;1353;51.386;7.028;2022-11-20T09:12:13;31.45;;;19.20;;
2686;SDS011;1353;51.386;7.028;2022-11-20T09:14:41;28.92;;;17.10;;
2686;SDS011;1353;51.386;7.028;2022-11-20T09:17:09;27.42;;;18.63;;
2686;SDS011;1353;51.386;7.028;2022-11-20T09:19:38;23.20;;;15.95;;
2686;SDS011;1353;51.386;7.028;2022-11-20T09:22:06;27.25;;;16.65;;
2686;SDS011;1353;51.386;7.028;2022-11-20T09:24:32;22.60;;;14.70;;
2686;SDS011;1353;51.386;7.028;2022-11-20T09:27:01;21.75;;;14.18;;
2686;SDS011;1353;51.386;7.028;2022-11-20T09:29:29;19.87;;;14.17;;
2686;SDS011;1353;51.386;7.028;2022-11-20T09:31:58;21.30;;;13.77;;
2686;SDS011;1353;51.386;7.028;2022-11-20T09:34:24;18.45;;;13.50;;
2686;SDS011;1353;51.386;7.028;2022-11-20T09:36:51;18.17;;;13.30;;
2686;SDS011;1353;51.386;7.028;2022-11-20T09:39:18;17.88;;;13.50;;
2686;SDS011;1353;51.386;7.028;2022-11-20T09:44:42;20.02;;;13.65;;
2686;SDS011;1353;51.386;7.028;2022-11-20T09:47:23;19.20;;;12.63;;
2686;SDS011;1353;51.386;7.028;2022-11-20T09:49:59;17.73;;;12.53;;
2686;SDS011;1353;51.386;7.028;2022-11-20T09:52:41;18.50;;;12.10;;
2686;SDS011;1353;51.386;7.028;2022-11-20T09:55:16;16.83;;;11.03;;
2686;SDS011;1353;51.386;7.028;2022-11-20T09:57:44;15.75;;;11.68;;
2686;SDS011;1353;51.386;7.028;2022-11-20T10:00:14;13.33;;;9.70;;
2686;SDS011;1353;51.386;7.028;2022-11-20T10:02:44;12.40;;;9.63;;
2686;SDS011;1353;51.386;7.028;2022-11-20T10:05:18;16.97;;;11.30;;
2686;SDS011;1353;51.386;7.028;2022-11-20T10:07:48;16.47;;;9.90;;
2686;SDS011;1353;51.386;7.028;2022-11-20T10:10:22;14.80;;;9.60;;
2686;SDS011;1353;51.386;7.028;2022-11-20T10:13:01;12.77;;;9.50;;
2686;SDS011;1353;51.386;7.028;2022-11-20T10:15:42;13.97;;;9.17;;
2686;SDS011;1353;51.386;7.028;2022-11-20T10:18:27;13.30;;;8.17;;
2686;SDS011;1353;51.386;7.028;2022-11-20T10:21:07;11.30;;;8.20;;
2686;SDS011;1353;51.386;7.028;2022-11-20T10:26:26;12.50;;;8.23;;
2686;SDS011;1353;51.386;7.028;2022-11-20T10:29:02;12.87;;;9.23;;
2686;SDS011;1353;51.386;7.028;2022-11-20T10:31:36;12.40;;;8.80;;
2686;SDS011;1353;51.386;7.028;2022-11-20T10:34:07;14.13;;;8.97;;
2686;SDS011;1353;51.386;7.028;2022-11-20T10:36:43;13.80;;;9.57;;
2686;SDS011;1353;51.386;7.028;2022-11-20T10:39:15;11.63;;;8.57;;
2686;SDS011;1353;51.386;7.028;2022-11-20T10:41:47;11.20;;;8.57;;
2686;SDS011;1353;51.386;7.028;2022-11-20T10:44:17;12.00;;;8.77;;
2686;SDS011;1353;51.386;7.028;2022-11-20T10:47:18;13.50;;;9.57;;
2686;SDS011;1353;51.386;7.028;2022-11-20T10:49:48;10.50;;;7.50;;
2686;SDS011;1353;51.386;7.028;2022-11-20T10:52:19;12.30;;;8.80;;
2686;SDS011;1353;51.386;7.028;2022-11-20T10:54:54;13.00;;;9.20;;
2686;SDS011;1353;51.386;7.028;2022-11-20T11:00:17;14.30;;;9.90;;
2686;SDS011;1353;51.386;7.028;2022-11-20T11:02:45;16.43;;;9.83;;
2686;SDS011;1353;51.386;7.028;2022-11-20T11:05:27;15.13;;;9.90;;
2686;SDS011;1353;51.386;7.028;2022-11-20T11:08:00;12.40;;;9.03;;
2686;SDS011;1353;51.386;7.028;2022-11-20T11:10:31;13.13;;;8.80;;
2686;SDS011;1353;51.386;7.028;2022-11-20T11:13:02;12.97;;;8.97;;
2686;SDS011;1353;51.386;7.028;2022-11-20T11:15:29;14.03;;;9.40;;
2686;SDS011;1353;51.386;7.028;2022-11-20T11:18:03;12.87;;;8.77;;
2686;SDS011;1353;51.386;7.028;2022-11-20T11:20:31;13.53;;;9.10;;
2686;SDS011;1353;51.386;7.028;2022-11-20T11:22:58;13.70;;;9.77;;
2686;SDS011;1353;51.386;7.028;2022-11-20T11:25:27;15.43;;;10.23;;
2686;SDS011;1353;51.386;7.028;2022-11-20T11:27:56;15.23;;;10.43;;
2686;SDS011;1353;51.386;7.028;2022-11-20T11:30:24;16.40;;;11.17;;
2686;SDS011;1353;51.386;7.028;2022-11-20T11:33:02;17.37;;;10.60;;
2686;SDS011;1353;51.386;7.028;2022-11-20T11:35:31;15.47;;;10.10;;
2686;SDS011;1353;51.386;7.028;2022-11-20T11:38:02;13.87;;;10.17;;
2686;SDS011;1353;51.386;7.028;2022-11-20T11:40:32;15.27;;;10.40;;
2686;SDS011;1353;51.386;7.028;2022-11-20T11:43:01;17.43;;;10.80;;
2686;SDS011;1353;51.386;7.028;2022-11-20T11:45:52;16.27;;;10.93;;
2686;SDS011;1353;51.386;7.028;2022-11-20T11:48:18;18.63;;;12.80;;
2686;SDS011;1353;51.386;7.028;2022-11-20T11:50:49;19.70;;;12.20;;
2686;SDS011;1353;51.386;7.028;2022-11-20T11:53:17;17.70;;;12.40;;
2686;SDS011;1353;51.386;7.028;2022-11-20T11:55:47;22.37;;;12.70;;
2686;SDS011;1353;51.386;7.028;2022-11-20T11:58:20;23.43;;;12.83;;
2686;SDS011;1353;51.386;7.028;2022-11-20T12:01:01;17.87;;;11.83;;
2686;SDS011;1353;51.386;7.028;2022-11-20T12:03:34;19.10;;;11.87;;
2686;SDS011;1353;51.386;7.028;2022-11-20T12:06:05;18.70;;;12.50;;
2686;SDS011;1353;51.386;7.028;2022-11-20T12:08:38;16.87;;;11.40;;
2686;SDS011;1353;51.386;7.028;2022-11-20T12:11:11;18.50;;;13.03;;
2686;SDS011;1353;51.386;7.028;2022-11-20T12:13:44;18.43;;;12.97;;
2686;SDS011;1353;51.386;7.028;2022-11-20T12:16:15;20.75;;;13.27;;
2686;SDS011;1353;51.386;7.028;2022-11-20T12:18:45;20.50;;;13.20;;
2686;SDS011;1353;51.386;7.028;2022-11-20T12:21:23;19.02;;;12.50;;
2686;SDS011;1353;51.386;7.028;2022-11-20T12:24:06;17.42;;;11.70;;
2686;SDS011;1353;51.386;7.028;2022-11-20T12:26:52;18.25;;;10.80;;
2686;SDS011;1353;51.386;7.028;2022-11-20T12:29:34;18.33;;;12.53;;
2686;SDS011;1353;51.386;7.028;2022-11-20T12:32:30;22.90;;;13.70;;
2686;SDS011;1353;51.386;7.028;2022-11-20T12:35:16;20.77;;;14.05;;
2686;SDS011;1353;51.386;7.028;2022-11-20T12:37:59;20.77;;;12.67;;
2686;SDS011;1353;51.386;7.028;2022-11-20T12:40:39;17.20;;;11.98;;
2686;SDS011;1353;51.386;7.028;2022-11-20T12:43:11;23.48;;;14.70;;
2686;SDS011;1353;51.386;7.028;2022-11-20T12:46:12;19.27;;;12.87;;
2686;SDS011;1353;51.386;7.028;2022-11-20T12:48:57;19.80;;;13.05;;
2686;SDS011;1353;51.386;7.028;2022-11-20T12:51:46;23.63;;;13.48;;
2686;SDS011;1353;51.386;7.028;2022-11-20T12:54:39;24.00;;;15.98;;
2686;SDS011;1353;51.386;7.028;2022-11-20T12:57:18;22.77;;;14.70;;
2686;SDS011;1353;51.386;7.028;2022-11-20T12:59:54;22.15;;;14.18;;
2686;SDS011;1353;51.386;7.028;2022-11-20T13:02:30;25.52;;;14.90;;
2686;SDS011;1353;51.386;7.028;2022-11-20T13:05:12;25.75;;;16.05;;
2686;SDS011;1353;51.386;7.028;2022-11-20T13:07:47;25.10;;;15.82;;
2686;SDS011;1353;51.386;7.028;2022-11-20T13:10:20;23.80;;;14.80;;
2686;SDS011;1353;51.386;7.028;2022-11-20T13:12:54;25.52;;;14.70;;
2686;SDS011;1353;51.386;7.028;2022-11-20T13:15:30;22.95;;;15.23;;
2686;SDS011;1353;51.386;7.028;2022-11-20T13:18:07;23.02;;;15.50;;
2686;SDS011;1353;51.386;7.028;2022-11-20T13:20:36;25.73;;;15.00;;
2686;SDS011;1353;51.386;7.028;2022-11-20T13:23:08;20.73;;;14.63;;
2686;SDS011;1353;51.386;7.028;2022-11-20T13:25:36;24.00;;;15.38;;
2686;SDS011;1353;51.386;7.028;2022-11-20T13:30:54;24.33;;;15.32;;
2686;SDS011;1353;51.386;7.028;2022-11-20T13:33:23;22.27;;;14.88;;
2686;SDS011;1353;51.386;7.028;2022-11-20T13:35:55;28.58;;;16.40;;
2686;SDS011;1353;51.386;7.028;2022-11-20T13:38:23;22.45;;;14.80;;
2686;SDS011;1353;51.386;7.028;2022-11-20T13:40:52;26.97;;;16.30;;
2686;SDS011;1353;51.386;7.028;2022-11-20T13:43:22;26.83;;;16.20;;
2686;SDS011;1353;51.386;7.028;2022-11-20T13:45:54;23.75;;;16.80;;
2686;SDS011;1353;51.386;7.028;2022-11-20T13:48:26;24.08;;;14.95;;
2686;SDS011;1353;51.386;7.028;2022-11-20T13:51:14;24.42;;;15.07;;
2686;SDS011;1353;51.386;7.028;2022-11-20T13:54:00;25.52;;;15.05;;
2686;SDS011;1353;51.386;7.028;2022-11-20T13:56:46;24.77;;;15.60;;
2686;SDS011;1353;51.386;7.028;2022-11-20T13:59:26;25.25;;;15.70;;
2686;SDS011;1353;51.386;7.028;2022-11-20T14:02:02;26.48;;;15.90;;
2686;SDS011;1353;51.386;7.028;2022-11-20T14:04:35;26.13;;;16.20;;
2686;SDS011;1353;51.386;7.028;2022-11-20T14:07:08;26.75;;;17.10;;
2686;SDS011;1353;51.386;7.028;2022-11-20T14:09:36;28.17;;;17.42;;
2686;SDS011;1353;51.386;7.028;2022-11-20T14:12:12;26.60;;;15.88;;
2686;SDS011;1353;51.386;7.028;2022-11-20T14:14:47;29.30;;;17.05;;
2686;SDS011;1353;51.386;7.028;2022-11-20T14:17:17;30.98;;;18.58;;
2686;SDS011;1353;51.386;7.028;2022-11-20T14:19:45;30.42;;;18.67;;
2686;SDS011;1353;51.386;7.028;2022-11-20T14:22:19;27.02;;;16.45;;
2686;SDS011;1353;51.386;7.028;2022-11-20T14:24:47;29.67;;;16.08;;
2686;SDS011;1353;51.386;7.028;2022-11-20T14:27:17;29.50;;;16.58;;
2686;SDS011;1353;51.386;7.028;2022-11-20T14:29:45;30.00;;;19.23;;
2686;SDS011;1353;51.386;7.028;2022-11-20T14:32:14;30.13;;;18.35;;
2686;SDS011;1353;51.386;7.028;2022-11-20T14:34:44;28.90;;;17.80;;
2686;SDS011;1353;51.386;7.028;2022-11-20T14:37:13;33.13;;;19.60;;
2686;SDS011;1353;51.386;7.028;2022-11-20T14:39:48;31.92;;;18.85;;
2686;SDS011;1353;51.386;7.028;2022-11-20T14:42:18;30.90;;;19.30;;
2686;SDS011;1353;51.386;7.028;2022-11-20T14:44:47;24.60;;;16.88;;
2686;SDS011;1353;51.386;7.028;2022-11-20T14:47:17;28.13;;;17.77;;
2686;SDS011;1353;51.386;7.028;2022-11-20T14:49:46;31.65;;;19.20;;
2686;SDS011;1353;51.386;7.028;2022-11-20T14:52:15;31.05;;;19.58;;
2686;SDS011;1353;51.386;7.028;2022-11-20T14:54:44;30.65;;;18.65;;
2686;SDS011;1353;51.386;7.028;2022-11-20T14:57:21;35.38;;;20.60;;
2686;SDS011;1353;51.386;7.028;2022-11-20T15:00:03;33.42;;;19.20;;
2686;SDS011;1353;51.386;7.028;2022-11-20T15:02:32;31.00;;;19.90;;
2686;SDS011;1353;51.386;7.028;2022-11-20T15:04:59;34.70;;;20.90;;
2686;SDS011;1353;51.386;7.028;2022-11-20T15:07:29;35.03;;;20.27;;
2686;SDS011;1353;51.386;7.028;2022-11-20T15:10:01;35.40;;;19.35;;
2686;SDS011;1353;51.386;7.028;2022-11-20T15:12:31;39.05;;;19.42;;
2686;SDS011;1353;51.386;7.028;2022-11-20T15:14:58;35.40;;;20.42;;
2686;SDS011;1353;51.386;7.028;2022-11-20T15:17:28;36.38;;;19.08;;